Time;durP1;ratioP1;P1;durP2;ratioP2;P2;SDS_P1;SDS_P2;PMS_P1;PMS_P2;Temp;Humidity;BMP_temperature;BMP_pressure;BME280_temperature;BME280_humidity;BME280_pressure;Samples;Min_cycle;Max_cycle;Signal;HPM_P1;HPM_P2
2022/06/12 00:01:12;;;;;;;8.57;5.20;;;;;;;-144.82;100.00;71671.09;4997417;28;20076;-76
2022/06/12 00:03:38;;;;;;;7.53;5.03;;;;;;;-144.82;100.00;71671.09;4995969;28;20038;-76
2022/06/12 00:06:06;;;;;;;7.13;5.28;;;;;;;-144.82;100.00;71671.09;4995767;28;20060;-76
2022/06/12 00:08:35;;;;;;;9.02;5.30;;;;;;;-144.82;100.00;71671.09;4995406;28;20160;-75
2022/06/12 00:11:03;;;;;;;6.88;5.20;;;;;;;-144.82;100.00;71671.09;4996511;28;20396;-76
2022/06/12 00:13:50;;;;;;;8.18;5.88;;;;;;;-144.82;100.00;71671.09;4994526;28;20459;-77
2022/06/12 00:16:19;;;;;;;6.13;4.75;;;;;;;-144.82;100.00;71671.09;4997056;28;20392;-76
2022/06/12 00:18:45;;;;;;;6.03;5.10;;;;;;;-144.82;100.00;71671.09;4995488;28;20439;-76
2022/06/12 00:21:11;;;;;;;7.82;5.43;;;;;;;-144.82;100.00;71671.09;4996476;28;20468;-75
2022/06/12 00:23:50;;;;;;;8.05;5.07;;;;;;;-144.82;100.00;71671.09;4995294;28;20483;-76
2022/06/12 00:26:20;;;;;;;6.15;5.00;;;;;;;-144.82;100.00;71671.09;4996638;28;20030;-75
2022/06/12 00:28:47;;;;;;;7.15;5.55;;;;;;;-144.82;100.00;71671.09;4979816;28;20040;-75
2022/06/12 00:31:15;;;;;;;7.82;5.50;;;;;;;-144.82;100.00;71671.09;4995296;28;20069;-75
2022/06/12 00:33:40;;;;;;;8.15;5.32;;;;;;;-144.82;100.00;71671.09;4996483;28;20037;-76
2022/06/12 00:36:07;;;;;;;10.45;5.60;;;;;;;-144.82;100.00;71671.09;4996454;28;20026;-76
2022/06/12 00:38:33;;;;;;;6.45;4.68;;;;;;;-144.82;100.00;71671.09;4978872;28;20030;-76
2022/06/12 00:40:59;;;;;;;6.95;4.97;;;;;;;-144.82;100.00;71671.09;4994332;28;20038;-76
2022/06/12 00:43:27;;;;;;;6.45;5.35;;;;;;;-144.82;100.00;71671.09;4996440;28;20121;-76
2022/06/12 00:46:05;;;;;;;7.22;5.05;;;;;;;-144.82;100.00;71671.09;4996228;28;20480;-76
2022/06/12 00:48:37;;;;;;;6.38;4.78;;;;;;;-144.82;100.00;71671.09;4996357;28;20023;-76
2022/06/12 00:51:11;;;;;;;5.63;4.80;;;;;;;-144.82;100.00;71671.09;4995295;28;20030;-76
2022/06/12 00:53:48;;;;;;;7.22;5.47;;;;;;;-144.82;100.00;71671.09;4995028;28;20042;-75
2022/06/12 00:56:27;;;;;;;6.93;5.47;;;;;;;-144.82;100.00;71671.09;4978989;28;20085;-76
2022/06/12 00:59:06;;;;;;;6.97;5.45;;;;;;;-144.82;100.00;71671.09;4995941;28;20022;-76
2022/06/12 01:01:42;;;;;;;6.13;5.47;;;;;;;-144.82;100.00;71671.09;4994859;28;20030;-75
2022/06/12 01:06:56;;;;;;;6.90;5.55;;;;;;;-144.82;100.00;71671.09;4994884;28;20097;-77
2022/06/12 01:09:24;;;;;;;7.63;5.57;;;;;;;-144.82;100.00;71671.09;4994119;28;20476;-77
2022/06/12 01:12:00;;;;;;;7.22;5.00;;;;;;;-144.82;100.00;71671.09;4978438;28;20045;-76
2022/06/12 01:14:35;;;;;;;8.07;5.50;;;;;;;-144.82;100.00;71671.09;4995686;28;20464;-76
2022/06/12 01:17:02;;;;;;;6.10;4.82;;;;;;;-144.82;100.00;71671.09;4994860;28;20078;-76
2022/06/12 01:19:53;;;;;;;8.32;5.20;;;;;;;-144.82;100.00;71671.09;4978366;28;20534;-76
2022/06/12 01:22:39;;;;;;;9.17;5.57;;;;;;;-144.82;100.00;71671.09;4986957;28;20066;-76
2022/06/12 01:25:22;;;;;;;7.72;4.95;;;;;;;-144.82;100.00;71671.09;4995138;28;20022;-75
2022/06/12 01:28:11;;;;;;;7.38;5.38;;;;;;;-144.82;100.00;71671.09;4995446;28;20097;-76
2022/06/12 01:30:46;;;;;;;6.88;4.70;;;;;;;-144.82;100.00;71671.09;4995319;28;20033;-76
2022/06/12 01:33:49;;;;;;;7.68;4.95;;;;;;;-144.82;100.00;71671.09;4978293;28;20022;-76
2022/06/12 01:36:26;;;;;;;7.93;4.75;;;;;;;-144.82;100.00;71671.09;4995544;28;20129;-76
2022/06/12 01:38:59;;;;;;;8.07;5.40;;;;;;;-144.82;100.00;71671.09;4994228;28;20026;-76
2022/06/12 01:41:31;;;;;;;8.40;5.03;;;;;;;-144.82;100.00;71671.09;4995341;28;20027;-76
2022/06/12 01:44:18;;;;;;;6.05;5.45;;;;;;;-144.82;100.00;71671.09;4995332;28;20117;-76
2022/06/12 01:46:50;;;;;;;9.38;5.50;;;;;;;-144.82;100.00;71671.09;4994110;28;20080;-76
2022/06/12 01:49:19;;;;;;;;;;;;;;;-144.82;100.00;71671.09;4995891;28;20440;-76
2022/06/12 01:52:11;;;;;;;7.15;5.13;;;;;;;-144.82;100.00;71671.09;4994946;28;20004;-75
2022/06/12 01:55:28;;;;;;;8.15;6.03;;;;;;;-144.82;100.00;71671.09;4994750;28;20105;-76
2022/06/12 01:58:13;;;;;;;8.32;5.93;;;;;;;-144.82;100.00;71671.09;4972808;28;20445;-76
2022/06/12 02:00:45;;;;;;;6.15;5.55;;;;;;;-144.82;100.00;71671.09;4994951;28;20506;-76
2022/06/12 02:03:13;;;;;;;9.10;5.13;;;;;;;-144.82;100.00;71671.09;4977594;28;20531;-77
2022/06/12 02:05:50;;;;;;;8.02;5.07;;;;;;;-144.82;100.00;71671.09;4977027;28;20026;-75
2022/06/12 02:08:24;;;;;;;6.80;5.30;;;;;;;-144.82;100.00;71671.09;4993173;28;20046;-76
2022/06/12 02:14:06;;;;;;;6.25;5.13;;;;;;;-144.82;100.00;71671.09;4995196;28;20479;-75
2022/06/12 02:16:43;;;;;;;6.07;4.63;;;;;;;-144.82;100.00;71671.09;4993094;28;20472;-76
2022/06/12 02:19:23;;;;;;;6.53;5.50;;;;;;;-144.82;100.00;71671.09;4993404;28;20375;-74
2022/06/12 02:22:28;;;;;;;6.63;4.82;;;;;;;-144.82;100.00;71671.09;4977159;28;20468;-75
2022/06/12 02:25:09;;;;;;;5.95;5.05;;;;;;;-144.82;100.00;71671.09;4994322;28;20022;-76
2022/06/12 02:28:18;;;;;;;5.90;4.95;;;;;;;-144.82;100.00;71671.09;4994465;28;20027;-76
2022/06/12 02:31:06;;;;;;;8.60;5.13;;;;;;;-144.82;100.00;71671.09;4956485;28;20475;-76
2022/06/12 02:33:37;;;;;;;7.85;5.68;;;;;;;-144.82;100.00;71671.09;4992730;28;20037;-76
2022/06/12 02:36:17;;;;;;;7.05;5.72;;;;;;;-144.82;100.00;71671.09;4976450;28;20034;-76
2022/06/12 02:38:56;;;;;;;7.80;6.47;;;;;;;-144.82;100.00;71671.09;4961366;28;20038;-76
2022/06/12 02:41:38;;;;;;;6.15;5.45;;;;;;;-144.82;100.00;71671.09;4996917;28;20045;-76
2022/06/12 02:44:11;;;;;;;6.35;5.43;;;;;;;-144.82;100.00;71671.09;5012778;28;20030;-76
2022/06/12 02:46:45;;;;;;;7.10;5.20;;;;;;;-144.82;100.00;71671.09;5012555;28;20029;-76
2022/06/12 02:49:11;;;;;;;7.45;5.80;;;;;;;-144.82;100.00;71671.09;5012576;28;20375;-76
2022/06/12 02:51:47;;;;;;;8.98;6.22;;;;;;;-144.82;100.00;71671.09;4980362;28;20544;-76
2022/06/12 02:54:52;;;;;;;6.65;5.38;;;;;;;-144.82;100.00;71671.09;4994059;28;20026;-75
2022/06/12 02:57:33;;;;;;;7.32;5.13;;;;;;;-144.82;100.00;71671.09;4993015;28;20074;-76
2022/06/12 03:00:22;;;;;;;6.30;5.70;;;;;;;-144.82;100.00;71671.09;4994003;28;20092;-76
2022/06/12 03:03:07;;;;;;;6.93;5.30;;;;;;;-144.82;100.00;71671.09;4993888;28;20096;-75
2022/06/12 03:05:39;;;;;;;6.75;5.45;;;;;;;-144.82;100.00;71671.09;4992748;28;20045;-77
2022/06/12 03:08:14;;;;;;;10.35;5.78;;;;;;;-144.82;100.00;71671.09;4976377;28;20034;-76
2022/06/12 03:10:56;;;;;;;6.43;4.82;;;;;;;-144.82;100.00;71671.09;4976994;28;20059;-75
2022/06/12 03:13:25;;;;;;;6.55;5.05;;;;;;;-144.82;100.00;71671.09;4998850;28;20033;-74
2022/06/12 03:16:10;;;;;;;7.55;5.40;;;;;;;-144.82;100.00;71671.09;5012237;28;20034;-75
2022/06/12 03:18:39;;;;;;;7.78;5.47;;;;;;;-144.82;100.00;71671.09;5013350;28;20105;-75
2022/06/12 03:21:28;;;;;;;6.68;4.75;;;;;;;-144.82;100.00;71671.09;5012145;28;20068;-75
2022/06/12 03:24:30;;;;;;;6.20;5.05;;;;;;;-144.82;100.00;71671.09;5013371;28;20044;-76
2022/06/12 03:27:30;;;;;;;7.83;5.77;;;;;;;-144.82;100.00;71671.09;5012197;28;20026;-76
2022/06/12 03:29:56;;;;;;;5.60;5.07;;;;;;;-144.82;100.00;71671.09;5013307;28;20026;-76
2022/06/12 03:32:25;;;;;;;6.82;4.68;;;;;;;-144.82;100.00;71671.09;5013519;28;20026;-76
2022/06/12 03:35:15;;;;;;;8.55;5.43;;;;;;;-144.82;100.00;71671.09;5012104;28;20121;-76
2022/06/12 03:37:59;;;;;;;6.50;4.97;;;;;;;-144.82;100.00;71671.09;5013606;28;20038;-75
2022/06/12 03:40:35;;;;;;;6.97;4.82;;;;;;;-144.82;100.00;71671.09;5013242;28;20172;-75
2022/06/12 03:43:01;;;;;;;7.20;5.80;;;;;;;-144.82;100.00;71671.09;4974450;28;20069;-75
2022/06/12 03:45:47;;;;;;;7.43;5.28;;;;;;;-144.82;100.00;71671.09;4974123;28;20038;-76
2022/06/12 03:48:22;;;;;;;5.68;5.10;;;;;;;-144.82;100.00;71671.09;4976557;28;20073;-76
2022/06/12 03:51:08;;;;;;;6.93;5.20;;;;;;;-144.82;100.00;71671.09;4976793;28;20560;-76
2022/06/12 03:53:53;;;;;;;6.60;4.50;;;;;;;-144.82;100.00;71671.09;4960470;28;20117;-76
2022/06/12 03:59:32;;;;;;;8.13;4.82;;;;;;;-144.82;100.00;71671.09;4977996;28;20041;-76
2022/06/12 04:02:10;;;;;;;5.68;5.03;;;;;;;-144.82;100.00;71671.09;4977569;28;20045;-76
2022/06/12 04:04:37;;;;;;;5.57;4.20;;;;;;;-144.82;100.00;71671.09;4976404;28;20120;-76
2022/06/12 04:07:06;;;;;;;6.22;4.57;;;;;;;-144.82;100.00;71671.09;4960350;28;20046;-74
2022/06/12 04:09:43;;;;;;;6.82;5.00;;;;;;;-144.82;100.00;71671.09;4960113;28;20427;-75
2022/06/12 04:12:20;;;;;;;7.32;4.85;;;;;;;-144.82;100.00;71671.09;4976456;28;20031;-76
2022/06/12 04:14:59;;;;;;;6.90;4.82;;;;;;;-144.82;100.00;71671.09;4960383;28;20361;-76
2022/06/12 04:17:24;;;;;;;6.85;4.35;;;;;;;-144.82;100.00;71671.09;4960327;28;20066;-76
2022/06/12 04:20:00;;;;;;;8.63;4.63;;;;;;;-144.82;100.00;71671.09;4977294;28;20026;-76
2022/06/12 04:22:39;;;;;;;6.28;5.10;;;;;;;-144.82;100.00;71671.09;4961395;28;20089;-75
2022/06/12 04:25:44;;;;;;;5.70;4.65;;;;;;;-144.82;100.00;71671.09;4976075;28;20507;-75
2022/06/12 04:28:40;;;;;;;9.13;4.40;;;;;;;-144.82;100.00;71671.09;4962963;28;20117;-75
2022/06/12 04:31:18;;;;;;;5.72;4.85;;;;;;;-144.82;100.00;71671.09;4977191;28;20135;-75
2022/06/12 04:34:18;;;;;;;7.97;5.15;;;;;;;-144.82;100.00;71671.09;4975945;28;20034;-76
2022/06/12 04:36:47;;;;;;;6.47;4.45;;;;;;;-144.82;100.00;71671.09;4977073;28;20027;-76
2022/06/12 04:39:15;;;;;;;4.72;4.32;;;;;;;-144.82;100.00;71671.09;4975629;28;20042;-76
2022/06/12 04:41:41;;;;;;;8.02;4.78;;;;;;;-144.82;100.00;71671.09;4959731;28;20035;-76
2022/06/12 04:44:07;;;;;;;6.47;4.90;;;;;;;-144.82;100.00;71671.09;4975528;28;20053;-76
2022/06/12 04:46:38;;;;;;;7.28;4.88;;;;;;;-144.82;100.00;71671.09;4975753;28;20039;-76
2022/06/12 04:49:05;;;;;;;4.70;4.30;;;;;;;-144.82;100.00;71671.09;4959684;28;20045;-76
2022/06/12 04:51:31;;;;;;;8.43;4.70;;;;;;;-144.82;100.00;71671.09;4975676;28;20070;-76
2022/06/12 04:53:57;;;;;;;6.68;4.68;;;;;;;-144.82;100.00;71671.09;4975582;28;20116;-75
2022/06/12 04:56:25;;;;;;;6.63;4.22;;;;;;;-144.82;100.00;71671.09;4976621;28;20042;-75
2022/06/12 04:58:54;;;;;;;5.75;4.05;;;;;;;-144.82;100.00;71671.09;4958825;28;20035;-76
2022/06/12 05:01:22;;;;;;;5.75;4.60;;;;;;;-144.82;100.00;71671.09;4975026;28;20034;-75
2022/06/12 05:03:47;;;;;;;5.35;4.18;;;;;;;-144.82;100.00;71671.09;4975258;28;20047;-76
2022/06/12 05:06:15;;;;;;;3.90;3.50;;;;;;;-144.82;100.00;71671.09;4976566;28;20349;-76
2022/06/12 05:08:41;;;;;;;8.23;4.32;;;;;;;-144.82;100.00;71671.09;4958701;28;20055;-74
2022/06/12 05:11:08;;;;;;;4.72;4.15;;;;;;;-144.82;100.00;71671.09;4976796;28;20066;-76
2022/06/12 05:13:34;;;;;;;4.57;3.42;;;;;;;-144.82;100.00;71671.09;4975196;28;20034;-74
2022/06/12 05:16:00;;;;;;;4.32;3.00;;;;;;;-144.82;100.00;71671.09;4959208;28;20031;-75
2022/06/12 05:18:27;;;;;;;4.70;2.95;;;;;;;-144.82;100.00;71671.09;4975759;28;20053;-76
2022/06/12 05:20:53;;;;;;;5.18;2.60;;;;;;;-144.82;100.00;71671.09;4975199;28;20038;-75
2022/06/12 05:23:21;;;;;;;3.58;2.80;;;;;;;-144.82;100.00;71671.09;4976052;28;20031;-75
2022/06/12 05:25:55;;;;;;;5.13;2.72;;;;;;;-144.82;100.00;71671.09;4976277;28;20074;-76
2022/06/12 05:28:23;;;;;;;5.70;2.63;;;;;;;-144.82;100.00;71671.09;4976528;28;20037;-75
2022/06/12 05:30:49;;;;;;;2.78;2.55;;;;;;;-144.82;100.00;71671.09;4974975;28;20031;-74
2022/06/12 05:33:15;;;;;;;4.95;2.80;;;;;;;-144.82;100.00;71671.09;4976083;28;20045;-76
2022/06/12 05:35:40;;;;;;;3.42;2.65;;;;;;;-144.82;100.00;71671.09;4974795;28;20483;-75
2022/06/12 05:38:07;;;;;;;3.08;2.70;;;;;;;-144.82;100.00;71671.09;4974468;28;20417;-75
2022/06/12 05:40:35;;;;;;;3.25;2.70;;;;;;;-144.82;100.00;71671.09;4974485;28;20353;-77
2022/06/12 05:43:02;;;;;;;3.83;2.63;;;;;;;-144.82;100.00;71671.09;4974700;28;20101;-76
2022/06/12 05:45:30;;;;;;;3.60;3.30;;;;;;;-144.82;100.00;71671.09;4974654;28;20039;-76
2022/06/12 05:48:09;;;;;;;3.97;2.42;;;;;;;-144.82;100.00;71671.09;4974479;28;20042;-80
2022/06/12 05:50:37;;;;;;;3.33;2.38;;;;;;;-144.82;100.00;71671.09;4975902;28;20042;-77
2022/06/12 05:53:03;;;;;;;3.50;2.40;;;;;;;-144.82;100.00;71671.09;4975741;28;20034;-77
2022/06/12 05:55:30;;;;;;;4.15;2.17;;;;;;;-144.82;100.00;71671.09;4974707;28;20034;-76
2022/06/12 05:57:55;;;;;;;3.13;2.65;;;;;;;-144.82;100.00;71671.09;4975389;28;20468;-84
2022/06/12 06:00:28;;;;;;;3.63;2.63;;;;;;;-144.82;100.00;71671.09;4993228;28;20034;-83
2022/06/12 06:02:54;;;;;;;3.70;2.83;;;;;;;-144.82;100.00;71671.09;4995959;28;20034;-84
2022/06/12 06:05:21;;;;;;;2.97;2.45;;;;;;;-144.82;100.00;71671.09;5000942;28;20038;-82
2022/06/12 06:07:46;;;;;;;2.80;2.50;;;;;;;-144.82;100.00;71671.09;4978271;28;20041;-80
2022/06/12 06:10:19;;;;;;;3.83;2.63;;;;;;;-144.82;100.00;71671.09;4993581;28;20050;-85
2022/06/12 06:12:44;;;;;;;5.18;2.85;;;;;;;-144.82;100.00;71671.09;4976545;28;20559;-83
2022/06/12 06:15:17;;;;;;;4.97;2.72;;;;;;;-144.82;100.00;71671.09;4993610;28;20057;-80
2022/06/12 06:17:44;;;;;;;3.72;2.63;;;;;;;-144.82;100.00;71671.09;4994496;28;20026;-81
2022/06/12 06:20:15;;;;;;;3.08;2.60;;;;;;;-144.82;100.00;71671.09;4985330;28;20030;-82
2022/06/12 06:22:41;;;;;;;2.63;2.40;;;;;;;-144.82;100.00;71671.09;4978132;28;20475;-83
2022/06/12 06:25:08;;;;;;;2.33;2.10;;;;;;;-144.82;100.00;71671.09;4993430;28;20114;-80
2022/06/12 06:27:33;;;;;;;3.30;2.15;;;;;;;-144.82;100.00;71671.09;5002663;28;20026;-81
2022/06/12 06:29:59;;;;;;;5.63;2.97;;;;;;;-144.82;100.00;71671.09;5000522;28;20416;-81
2022/06/12 06:32:25;;;;;;;2.72;2.20;;;;;;;-144.82;100.00;71671.09;4974584;28;20038;-80
2022/06/12 06:34:50;;;;;;;4.88;2.03;;;;;;;-144.82;100.00;71671.09;4977371;28;20033;-84
2022/06/12 06:37:16;;;;;;;1.88;1.77;;;;;;;-144.82;100.00;71671.09;4991674;28;20028;-82
2022/06/12 06:39:42;;;;;;;2.03;1.88;;;;;;;-144.82;100.00;71671.09;4995671;28;20550;-80
2022/06/12 06:42:13;;;;;;;2.83;1.70;;;;;;;-144.82;100.00;71671.09;4994663;28;20479;-81
2022/06/12 06:47:24;;;;;;;4.20;1.80;;;;;;;-144.82;100.00;71671.09;4994156;28;20060;-81
2022/06/12 06:49:49;;;;;;;3.15;1.90;;;;;;;-144.82;100.00;71671.09;4976238;28;20535;-82
2022/06/12 06:52:16;;;;;;;4.10;1.73;;;;;;;-144.82;100.00;71671.09;4992421;28;20034;-79
2022/06/12 06:54:41;;;;;;;2.38;1.50;;;;;;;-144.82;100.00;71671.09;4976189;28;20096;-81
2022/06/12 06:57:23;;;;;;;3.80;2.15;;;;;;;-144.82;100.00;71671.09;4992903;28;20030;-83
2022/06/12 06:59:48;;;;;;;3.85;2.28;;;;;;;-144.82;100.00;71671.09;4994104;28;20113;-83
2022/06/12 07:02:15;;;;;;;2.33;1.98;;;;;;;-144.82;100.00;71671.09;4991695;28;20129;-80
2022/06/12 07:04:41;;;;;;;6.13;3.80;;;;;;;-144.82;100.00;71671.09;4975502;28;20041;-80
2022/06/12 07:07:28;;;;;;;3.38;2.67;;;;;;;-144.82;100.00;71671.09;4992282;28;20027;-82
2022/06/12 07:09:54;;;;;;;3.50;2.08;;;;;;;-144.82;100.00;71671.09;4993719;28;20108;-81
2022/06/12 07:12:22;;;;;;;2.45;1.75;;;;;;;-144.82;100.00;71671.09;4976738;28;20085;-80
2022/06/12 07:14:47;;;;;;;3.30;2.05;;;;;;;-144.82;100.00;71671.09;4992698;28;20047;-79
2022/06/12 07:17:14;;;;;;;8.63;2.67;;;;;;;-144.82;100.00;71671.09;4976912;28;20034;-79
2022/06/12 07:19:41;;;;;;;3.78;2.33;;;;;;;-144.82;100.00;71671.09;4992894;28;20030;-81
2022/06/12 07:22:06;;;;;;;3.55;2.08;;;;;;;-144.82;100.00;71671.09;4976859;28;20026;-78
2022/06/12 07:24:32;;;;;;;7.35;2.75;;;;;;;-144.82;100.00;71671.09;4979977;28;20125;-79
2022/06/12 07:26:59;;;;;;;2.63;2.25;;;;;;;-144.82;100.00;71671.09;4996392;28;20030;-78
2022/06/12 07:29:26;;;;;;;2.47;2.03;;;;;;;-144.82;100.00;71671.09;4995925;28;20503;-80
2022/06/12 07:31:52;;;;;;;4.03;2.58;;;;;;;-144.82;100.00;71671.09;4997547;28;20027;-82
2022/06/12 07:34:18;;;;;;;2.00;1.80;;;;;;;-144.82;100.00;71671.09;4995951;28;20033;-82
2022/06/12 07:36:46;;;;;;;4.85;2.78;;;;;;;-144.82;100.00;71671.09;4996739;28;20026;-78
2022/06/12 07:39:19;;;;;;;2.15;1.92;;;;;;;-144.82;100.00;71671.09;4995434;28;20181;-79
2022/06/12 07:41:48;;;;;;;2.08;1.85;;;;;;;-144.82;100.00;71671.09;4975883;28;20147;-79
2022/06/12 07:44:16;;;;;;;2.05;1.80;;;;;;;-144.82;100.00;71671.09;4962062;28;20031;-78
2022/06/12 07:46:41;;;;;;;2.63;1.73;;;;;;;-144.82;100.00;71671.09;4979744;28;20041;-78
2022/06/12 07:49:08;;;;;;;3.92;2.03;;;;;;;-144.82;100.00;71671.09;4995574;28;20493;-81
2022/06/12 07:51:36;;;;;;;2.55;2.00;;;;;;;-144.82;100.00;71671.09;4976650;28;20057;-79
2022/06/12 07:54:01;;;;;;;5.75;3.05;;;;;;;-144.82;100.00;71671.09;4995788;28;20540;-79
2022/06/12 07:56:27;;;;;;;4.85;2.50;;;;;;;-144.82;100.00;71671.09;4995848;28;20046;-79
2022/06/12 07:58:54;;;;;;;2.05;1.85;;;;;;;-144.82;100.00;71671.09;4995506;28;20062;-79
2022/06/12 08:01:24;;;;;;;1.60;1.48;;;;;;;-144.82;100.00;71671.09;4963334;28;20034;-79
2022/06/12 08:03:49;;;;;;;2.70;1.90;;;;;;;-144.82;100.00;71671.09;4979209;28;20030;-80
2022/06/12 08:06:15;;;;;;;3.08;2.45;;;;;;;-144.82;100.00;71671.09;4978465;28;20042;-79
2022/06/12 08:08:42;;;;;;;2.05;1.38;;;;;;;-144.82;100.00;71671.09;4978597;28;20054;-78
2022/06/12 08:11:11;;;;;;;2.10;1.85;;;;;;;-144.82;100.00;71671.09;4979429;28;20038;-79
2022/06/12 08:13:37;;;;;;;1.73;1.35;;;;;;;-144.82;100.00;71671.09;4995551;28;20050;-77
2022/06/12 08:16:04;;;;;;;1.70;1.30;;;;;;;-144.82;100.00;71671.09;4995702;28;20030;-78
2022/06/12 08:18:31;;;;;;;1.42;1.23;;;;;;;-144.82;100.00;71671.09;4995482;28;20031;-78
2022/06/12 08:21:03;;;;;;;2.10;1.20;;;;;;;-144.82;100.00;71671.09;4995662;28;20033;-78
2022/06/12 08:23:50;;;;;;;2.05;0.80;;;;;;;-144.82;100.00;71671.09;4979382;28;20484;-78
2022/06/12 08:26:23;;;;;;;2.00;0.80;;;;;;;-144.82;100.00;71671.09;4980825;28;20042;-78
2022/06/12 08:29:00;;;;;;;1.15;0.70;;;;;;;-144.82;100.00;71671.09;4978811;28;20038;-78
2022/06/12 08:31:29;;;;;;;2.58;0.90;;;;;;;-144.82;100.00;71671.09;5000911;28;20384;-80
2022/06/12 08:34:01;;;;;;;1.73;1.63;;;;;;;-144.82;100.00;71671.09;4994690;28;20058;-78
2022/06/12 08:36:28;;;;;;;2.55;1.00;;;;;;;-144.82;100.00;71671.09;4976395;28;20038;-79
2022/06/12 08:38:54;;;;;;;2.20;0.80;;;;;;;-144.82;100.00;71671.09;4975959;28;20026;-78
2022/06/12 08:41:30;;;;;;;0.73;0.73;;;;;;;-144.82;100.00;71671.09;4976425;28;20041;-78
2022/06/12 08:43:56;;;;;;;0.93;0.60;;;;;;;-144.82;100.00;71671.09;4998386;28;20049;-80
2022/06/12 08:46:45;;;;;;;1.30;1.00;;;;;;;-144.82;100.00;71671.09;5014274;28;20084;-80
2022/06/12 08:49:45;;;;;;;0.95;0.70;;;;;;;-144.82;100.00;71671.09;5016075;28;20029;-86
2022/06/12 08:52:49;;;;;;;0.95;0.70;;;;;;;-144.82;100.00;71671.09;4976987;28;20033;-81
2022/06/12 08:55:37;;;;;;;1.00;0.65;;;;;;;-144.82;100.00;71671.09;4961309;28;20045;-80
2022/06/12 08:58:31;;;;;;;1.00;0.90;;;;;;;-144.82;100.00;71671.09;4975367;28;20388;-82
2022/06/12 09:00:58;;;;;;;1.85;0.82;;;;;;;-144.82;100.00;71671.09;4989242;28;20070;-82
2022/06/12 09:03:29;;;;;;;0.80;0.80;;;;;;;-144.82;100.00;71671.09;4959297;28;20038;-80
2022/06/12 09:06:16;;;;;;;1.52;0.80;;;;;;;-144.82;100.00;71671.09;4943654;28;20373;-82
2022/06/12 09:09:04;;;;;;;1.58;1.48;;;;;;;-144.82;100.00;71671.09;4987381;28;20048;-73
2022/06/12 09:11:37;;;;;;;1.65;0.82;;;;;;;-144.82;100.00;71671.09;4978598;28;20034;-74
2022/06/12 09:14:25;;;;;;;1.33;0.90;;;;;;;-144.82;100.00;71671.09;4994647;28;20045;-75
2022/06/12 09:17:02;;;;;;;1.10;0.80;;;;;;;-144.82;100.00;71671.09;4995584;28;20018;-75
2022/06/12 09:19:40;;;;;;;0.88;0.88;;;;;;;-144.82;100.00;71671.09;4994339;28;20033;-75
2022/06/12 09:22:31;;;;;;;0.90;0.90;;;;;;;-144.82;100.00;71671.09;4993803;28;20014;-77
2022/06/12 09:25:27;;;;;;;1.70;0.98;;;;;;;-144.82;100.00;71671.09;4963944;28;20030;-76
2022/06/12 09:28:10;;;;;;;1.17;1.00;;;;;;;-144.82;100.00;71671.09;4956848;28;20074;-76
2022/06/12 09:30:58;;;;;;;2.55;1.00;;;;;;;-144.82;100.00;71671.09;4995468;28;20026;-79
2022/06/12 09:33:46;;;;;;;1.20;0.82;;;;;;;-144.82;100.00;71671.09;4994624;28;20038;-79
2022/06/12 09:36:18;;;;;;;1.50;1.23;;;;;;;-144.82;100.00;71671.09;5014135;28;20113;-79
2022/06/12 09:39:18;;;;;;;1.00;0.90;;;;;;;-144.82;100.00;71671.09;5015183;28;20022;-78
2022/06/12 09:41:59;;;;;;;2.20;1.10;;;;;;;-144.82;100.00;71671.09;5014639;28;20018;-77
2022/06/12 09:44:44;;;;;;;;;;;;;;;-144.82;100.00;71671.09;5015420;28;20312;-80
2022/06/12 09:47:17;;;;;;;1.40;1.30;;;;;;;-144.82;100.00;71671.09;5027652;28;19910;-78
2022/06/12 09:49:42;;;;;;;1.10;1.00;;;;;;;-144.82;100.00;71671.09;5025267;28;20025;-78
2022/06/12 09:52:20;;;;;;;1.98;0.90;;;;;;;-144.82;100.00;71671.09;5016161;28;20379;-78
2022/06/12 09:54:58;;;;;;;2.00;1.20;;;;;;;-144.82;100.00;71671.09;5015411;28;20547;-78
2022/06/12 09:57:32;;;;;;;0.80;0.80;;;;;;;-144.82;100.00;71671.09;4997170;28;20037;-78
2022/06/12 10:00:16;;;;;;;0.95;0.95;;;;;;;-144.82;100.00;71671.09;5013665;28;20029;-78
2022/06/12 10:03:09;;;;;;;1.27;1.15;;;;;;;-144.82;100.00;71671.09;5013160;28;20030;-79
2022/06/12 10:05:44;;;;;;;1.75;1.20;;;;;;;-144.82;100.00;71671.09;5014871;28;20030;-79
2022/06/12 10:08:09;;;;;;;1.58;1.10;;;;;;;-144.82;100.00;71671.09;5014426;28;20026;-80
2022/06/12 10:11:17;;;;;;;1.98;1.10;;;;;;;-144.82;100.00;71671.09;5014411;28;20037;-79
2022/06/12 10:14:17;;;;;;;1.95;1.00;;;;;;;-144.82;100.00;71671.09;4984336;28;20038;-80
2022/06/12 10:16:47;;;;;;;2.00;1.10;;;;;;;-144.82;100.00;71671.09;5014039;28;20121;-80
2022/06/12 10:19:17;;;;;;;0.80;0.80;;;;;;;-144.82;100.00;71671.09;5012888;28;20017;-79
2022/06/12 10:21:45;;;;;;;1.65;0.80;;;;;;;-144.82;100.00;71671.09;5014442;28;20029;-80
2022/06/12 10:24:11;;;;;;;1.13;1.02;;;;;;;-144.82;100.00;71671.09;4980475;28;20021;-80
2022/06/12 10:26:38;;;;;;;1.42;1.08;;;;;;;-144.82;100.00;71671.09;4996647;28;20041;-79
2022/06/12 10:29:13;;;;;;;1.20;1.15;;;;;;;-144.82;100.00;71671.09;4980367;28;20022;-80
2022/06/12 10:31:56;;;;;;;2.45;0.80;;;;;;;-144.82;100.00;71671.09;5012863;28;20021;-78
2022/06/12 10:34:29;;;;;;;1.35;1.15;;;;;;;-144.82;100.00;71671.09;4997653;28;20033;-79
2022/06/12 10:37:19;;;;;;;1.48;1.08;;;;;;;-144.82;100.00;71671.09;4994070;28;20036;-79
2022/06/12 10:39:45;;;;;;;1.30;1.20;;;;;;;-144.82;100.00;71671.09;4982859;28;20034;-79
2022/06/12 10:42:38;;;;;;;1.83;1.40;;;;;;;-144.82;100.00;71671.09;5009223;28;20112;-79
2022/06/12 10:45:14;;;;;;;0.77;0.77;;;;;;;-144.82;100.00;71671.09;5001463;28;20061;-83
2022/06/12 10:47:44;;;;;;;0.80;0.80;;;;;;;-144.82;100.00;71671.09;5012688;28;20022;-79
2022/06/12 10:50:37;;;;;;;1.42;1.00;;;;;;;-144.82;100.00;71671.09;4996584;28;20058;-82
2022/06/12 10:53:12;;;;;;;1.33;1.00;;;;;;;-144.82;100.00;71671.09;4990723;28;20046;-80
2022/06/12 10:56:03;;;;;;;1.10;0.85;;;;;;;-144.82;100.00;71671.09;4993455;28;20112;-81
2022/06/12 10:58:50;;;;;;;1.77;0.90;;;;;;;-144.82;100.00;71671.09;4992325;28;20054;-78
2022/06/12 11:01:29;;;;;;;1.20;1.00;;;;;;;-144.82;100.00;71671.09;4993419;28;20514;-77
2022/06/12 11:03:54;;;;;;;2.67;1.23;;;;;;;-144.82;100.00;71671.09;4993673;28;20030;-78
2022/06/12 11:06:31;;;;;;;1.65;1.55;;;;;;;-144.82;100.00;71671.09;4993574;28;20420;-78
2022/06/12 11:09:07;;;;;;;1.58;1.00;;;;;;;-144.82;100.00;71671.09;4976063;28;20047;-77
2022/06/12 11:12:10;;;;;;;1.83;1.05;;;;;;;-144.82;100.00;71671.09;4975807;28;20125;-79
2022/06/12 11:14:47;;;;;;;2.30;1.00;;;;;;;-144.82;100.00;71671.09;4993616;28;20491;-79
2022/06/12 11:17:37;;;;;;;2.25;1.00;;;;;;;-144.82;100.00;71671.09;4993169;28;20034;-80
2022/06/12 11:20:09;;;;;;;1.15;1.05;;;;;;;-144.82;100.00;71671.09;4993701;28;20030;-76
2022/06/12 11:22:45;;;;;;;1.83;1.48;;;;;;;-144.82;100.00;71671.09;4993829;28;20062;-78
2022/06/12 11:25:16;;;;;;;2.03;1.50;;;;;;;-144.82;100.00;71671.09;4976157;28;20057;-80
2022/06/12 11:27:55;;;;;;;4.10;1.58;;;;;;;-144.82;100.00;71671.09;4991267;28;20030;-78
2022/06/12 11:30:52;;;;;;;0.98;0.98;;;;;;;-144.82;100.00;71671.09;4992577;28;20057;-77
2022/06/12 11:33:40;;;;;;;1.70;1.00;;;;;;;-144.82;100.00;71671.09;4975573;28;20042;-77
2022/06/12 11:36:18;;;;;;;0.80;0.80;;;;;;;-144.82;100.00;71671.09;4993625;28;20033;-77
2022/06/12 11:39:03;;;;;;;1.00;1.00;;;;;;;-144.82;100.00;71671.09;4994251;28;20035;-75
2022/06/12 11:42:09;;;;;;;1.40;1.00;;;;;;;-144.82;100.00;71671.09;4992445;28;20062;-75
2022/06/12 11:44:45;;;;;;;1.27;0.90;;;;;;;-144.82;100.00;71671.09;4993552;28;20046;-77
2022/06/12 11:47:29;;;;;;;2.47;0.90;;;;;;;-144.82;100.00;71671.09;4992352;28;20042;-78
2022/06/12 11:50:22;;;;;;;4.40;1.20;;;;;;;-144.82;100.00;71671.09;4993675;28;20049;-77
2022/06/12 11:53:23;;;;;;;1.92;1.20;;;;;;;-144.82;100.00;71671.09;4992183;28;20406;-77
2022/06/12 11:56:03;;;;;;;2.70;0.90;;;;;;;-144.82;100.00;71671.09;4992347;28;20046;-78
2022/06/12 11:58:50;;;;;;;2.35;1.05;;;;;;;-144.82;100.00;71671.09;4991221;28;20030;-78